Akron Fulton International Airport Akron US
ICAO: KAKR
IATA: AKC
Category: Medium
Scheduled Services: No

Elevation: 1067 ft
TransAlt. 18000 ft.

Airport Communications:
APP/DEP:118.6
ASOS:126.825
CTAF/UNICOM:123.075
CLEVELAND RDO:114.4

KAKR Zoom In..

Runways:

(A) RW 01 length 2337 ft width 100 ft
LOC 110.90 / hdg 8

(B) RW 07 length 6336 ft width 150 ft
LOC 110.90 / hdg 69

(C) RW 19 length 2337 ft width 100 ft
LOC 110.90 / hdg 188

(D) RW 25 length 6336 ft width 150 ft
LOC 110.90 / hdg 249

Location; KAKR
Day. 20 / Time. 19.54 Zulu
* Altimeter: 29.92
* Temperature: 27° c. 80.6°f.
* Wind from: 220° Speed 13 kn with Gusts up to 18 kn.
Dewpoint: 18° c.
Visibility: 10 Statute Miles.
Clouds: Few 3000 ft.
Clouds: Scattered 3400 ft.
Clouds: Broken 11000 ft.

KAKR 201954Z AUTO 22013G18KT 10SM FEW030 SCT034 BKN110 27/18 A2992 RMK AO2 SLP123 T02720178


Wind From 220°
Speed 13 kn.

 
 
jpsmedia.com for Web Design worldairports.se 2018   terms of use